Flag for Brazil

Past Weather in 23°59'40.5"S, 46°15'24.8"W, Brazil — Yesterday and Last 2 Weeks

Currently: 57 °F. Clear. (Weather station: Sao Paulo Airport, Brazil). See more current weather

Past Weather in 23°59'40.5"S, 46°15'24.8"W — Graph

°F

23°59'40.5"S, 46°15'24.8"W Temperature Yesterday

Maximum temperature yesterday: 77 °F (at 2:00 pm)
Minimum temperature yesterday: 55 °F (at 12:00 am)
Average temperature yesterday: 62 °F

High & Low Weather Summary for the Past Weeks

 TemperatureHumidityPressure
High81 °F (Jul 5, 2:00 pm)100% (Jul 9, 5:01 am)30.42 "Hg (Jul 9, 5:01 am)
Low52 °F (Jun 30, 3:00 pm)21% (Jul 5, 2:00 pm)30.04 "Hg (Jul 10, 3:15 am)
Average62 °F81%30.20 "Hg
* Reported Jun 30 1:21 am — Jul 15 1:00 am, 23°59'40.5"S, 46°15'24.8"W. Weather by CustomWeather, © 2024

Note: Actual official high and low records may vary slightly from our data, if they occured in-between our weather recording intervals... More about our weather records

23°59'40.5"S, 46°15'24.8"W Weather History for the Previous 24 Hours

Scroll right to see more
 ConditionsComfort  
Time TempWeatherWind HumidityBarometerVisibility
1:00 am
Mon, Jul 15
57 °FClear.2 mph88%30.27 "Hg10 mi
12:00 am57 °FClear.2 mph88%30.27 "Hg10 mi
11:01 pm
Sun, Jul 14
57 °FClear.1 mph88%30.27 "Hg10 mi
10:00 pm57 °FPartly cloudy.6 mph88%30.27 "HgN/A
9:15 pm55 °FPartly cloudy.5 mph100%30.27 "Hg6 mi
9:00 pm55 °FPassing clouds.3 mph94%30.27 "Hg6 mi
8:00 pm57 °FMostly cloudy.5 mph88%30.24 "HgN/A
7:00 pm55 °FMostly cloudy.12 mph100%30.24 "HgN/A
6:05 pm57 °FPartly cloudy.13 mph94%30.24 "Hg6 mi
5:00 pm66 °FPassing clouds.15 mph73%30.18 "HgN/A
4:00 pm77 °FPassing clouds.9 mph44%30.18 "HgN/A
3:00 pm77 °FPassing clouds.12 mph44%30.18 "HgN/A
2:00 pm77 °FPassing clouds.15 mph47%30.18 "HgN/A
1:00 pm75 °FPassing clouds.15 mph47%30.21 "HgN/A
12:00 pm72 °FPassing clouds.7 mph61%30.24 "HgN/A
11:00 am70 °FClear.5 mph69%30.27 "Hg6 mi
10:00 am64 °FPartly sunny.5 mph83%30.27 "Hg6 mi
9:00 am63 °FPartly sunny.5 mph88%30.27 "Hg5 mi
8:00 am59 °FPartly sunny.5 mph94%30.27 "Hg4 mi
7:00 am59 °FLow clouds.6 mph94%30.24 "Hg5 mi
6:00 am59 °FLow clouds.9 mph94%30.21 "HgN/A
5:00 am59 °FLow clouds.9 mph94%30.24 "HgN/A
4:18 am59 °FLow clouds.6 mph94%30.24 "HgN/A
4:00 am57 °FLow clouds.3 mph94%30.24 "HgN/A
2:53 am55 °FPartly cloudy.6 mph94%30.24 "HgN/A
2:00 am57 °FPassing clouds.2 mph94%30.24 "HgN/A
Weather by CustomWeather, © 2024

See weather overview